createdAt,value
2018-01-20T00:02:58.587Z,-2.16
2018-01-20T00:12:34.179Z,-2.23
2018-01-20T00:22:10.823Z,-2.38
2018-01-20T00:31:47.064Z,-2.50
2018-01-20T00:41:23.740Z,-2.49
2018-01-20T00:51:00.315Z,-2.50
2018-01-20T01:00:36.479Z,-2.52
2018-01-20T01:10:12.120Z,-2.82
2018-01-20T01:19:52.028Z,-2.75
2018-01-20T01:29:28.673Z,-2.86
2018-01-20T01:39:05.381Z,-2.77
2018-01-20T01:48:42.335Z,-2.73
2018-01-20T01:58:19.319Z,-2.89
2018-01-20T02:07:55.823Z,-2.86
2018-01-20T02:17:31.678Z,-2.86
2018-01-20T02:27:11.573Z,-2.99
2018-01-20T02:36:47.576Z,-2.95
2018-01-20T02:46:24.456Z,-2.98
2018-01-20T02:56:01.886Z,-2.82
2018-01-20T03:05:38.673Z,-2.62
2018-01-20T03:15:19.189Z,-2.56
2018-01-20T03:24:48.646Z,-2.45
2018-01-20T03:34:25.589Z,-2.38
2018-01-20T03:44:02.514Z,-2.13
2018-01-20T03:53:38.808Z,-1.78
2018-01-20T04:03:19.955Z,-1.65
2018-01-20T04:12:59.934Z,-1.62
2018-01-20T04:22:29.866Z,-1.66
2018-01-20T04:32:06.388Z,-1.60
2018-01-20T04:41:42.714Z,-1.91
2018-01-20T04:51:19.047Z,-2.04
2018-01-20T05:00:55.081Z,-2.07
2018-01-20T05:10:31.550Z,-2.30
2018-01-20T05:20:07.792Z,-2.28
2018-01-20T05:29:44.375Z,-2.57
2018-01-20T05:39:21.144Z,-2.59
2018-01-20T05:48:58.058Z,-2.56
2018-01-20T05:58:38.435Z,-2.64
2018-01-20T06:08:07.479Z,-2.75
2018-01-20T06:17:43.926Z,-2.83
2018-01-20T06:27:20.289Z,-2.78
2018-01-20T06:36:56.393Z,-2.92
2018-01-20T06:46:33.744Z,-3.01
2018-01-20T06:56:07.945Z,-3.07
2018-01-20T07:05:44.814Z,-3.07
2018-01-20T07:15:21.470Z,-3.04
2018-01-20T07:25:01.264Z,-2.65
2018-01-20T07:34:31.918Z,-2.34
2018-01-20T07:44:08.584Z,-2.20
2018-01-20T07:53:45.471Z,-1.84
2018-01-20T08:03:22.011Z,-1.60
2018-01-20T08:12:58.581Z,-1.13
2018-01-20T08:22:35.983Z,-0.72
2018-01-20T08:32:13.763Z,-0.11
2018-01-20T08:41:51.561Z,0.46
2018-01-20T08:51:28.695Z,0.84
2018-01-20T09:01:06.095Z,1.41
2018-01-20T09:10:43.420Z,2.01
2018-01-20T09:20:24.984Z,2.38
2018-01-20T09:29:53.882Z,2.73
2018-01-20T09:39:35.218Z,2.99
2018-01-20T09:49:08.218Z,3.54
2018-01-20T09:58:37.436Z,3.69
2018-01-20T10:08:13.905Z,4.28
2018-01-20T10:17:55.468Z,4.44
2018-01-20T10:27:28.393Z,4.30
2018-01-20T10:37:00.247Z,4.25
2018-01-20T10:46:32.567Z,4.59
2018-01-20T10:56:01.042Z,4.50
2018-01-20T11:05:38.220Z,4.64
2018-01-20T11:15:14.704Z,7.05
2018-01-20T11:24:52.076Z,7.91
2018-01-20T11:34:33.004Z,8.00
2018-01-20T11:44:02.281Z,7.82
2018-01-20T11:53:38.695Z,6.73
2018-01-20T12:03:16.998Z,8.17
2018-01-20T12:12:53.862Z,7.83
2018-01-20T12:22:34.787Z,7.72
2018-01-20T12:32:01.584Z,7.13
2018-01-20T12:41:37.473Z,6.96
2018-01-20T12:51:14.756Z,8.40
2018-01-20T13:00:50.200Z,7.21
2018-01-20T13:10:23.847Z,6.75
2018-01-20T13:19:59.534Z,6.73
2018-01-20T13:29:34.942Z,6.21
2018-01-20T13:39:10.750Z,6.03
2018-01-20T13:48:44.984Z,5.88
2018-01-20T13:58:25.477Z,5.81
2018-01-20T14:08:01.813Z,5.54
2018-01-20T14:17:37.762Z,5.54
2018-01-20T14:27:14.302Z,5.42
2018-01-20T14:36:50.421Z,5.08
2018-01-20T14:46:25.985Z,4.25
2018-01-20T14:56:00.584Z,3.47
2018-01-20T15:05:36.202Z,3.25
2018-01-20T15:15:11.487Z,2.92
2018-01-20T15:24:46.794Z,2.42
2018-01-20T15:34:22.687Z,1.74
2018-01-20T15:43:58.270Z,1.40
2018-01-20T15:53:33.654Z,1.12
2018-01-20T16:03:09.691Z,0.93
2018-01-20T16:12:45.864Z,0.80
2018-01-20T16:22:22.320Z,0.62
2018-01-20T16:31:58.269Z,0.45
2018-01-20T16:41:34.148Z,0.21
2018-01-20T16:51:09.706Z,-0.04
2018-01-20T17:00:45.652Z,-0.15
2018-01-20T17:10:22.317Z,-0.12
2018-01-20T17:19:58.868Z,-0.14
2018-01-20T17:29:35.648Z,-0.26
2018-01-20T17:39:12.134Z,-0.26
2018-01-20T17:48:49.115Z,0.06
2018-01-20T17:58:30.461Z,-0.12
2018-01-20T18:08:02.379Z,-0.19
2018-01-20T18:17:32.876Z,-0.15
2018-01-20T18:27:13.056Z,-0.17
2018-01-20T18:36:41.716Z,-0.20
2018-01-20T18:46:17.913Z,-0.08
2018-01-20T18:55:54.796Z,0.01
2018-01-20T19:05:31.460Z,-0.07
2018-01-20T19:15:12.375Z,0.21
2018-01-20T19:24:45.644Z,0.10
2018-01-20T19:34:18.364Z,0.14
2018-01-20T19:43:47.526Z,0.28
2018-01-20T19:53:28.176Z,0.24
2018-01-20T20:03:01.399Z,0.16
2018-01-20T20:12:30.484Z,0.35
2018-01-20T20:22:11.073Z,0.25
2018-01-20T20:31:44.209Z,0.53
2018-01-20T20:41:12.933Z,0.47
2018-01-20T20:50:53.640Z,0.49
2018-01-20T21:00:26.282Z,0.47
2018-01-20T21:09:59.184Z,0.47
2018-01-20T21:19:28.213Z,0.35
2018-01-20T21:29:08.799Z,0.40
2018-01-20T21:38:38.059Z,0.50
2018-01-20T21:48:15.007Z,0.64
2018-01-20T21:57:55.673Z,0.42
2018-01-20T22:07:28.612Z,0.59
2018-01-20T22:16:57.406Z,0.36
2018-01-20T22:26:38.056Z,0.43
2018-01-20T22:36:07.043Z,0.36
2018-01-20T22:45:47.828Z,0.28
2018-01-20T22:55:15.924Z,-0.05
2018-01-20T23:04:52.663Z,-0.17
2018-01-20T23:14:29.366Z,-0.37
2018-01-20T23:24:09.946Z,-0.50
2018-01-20T23:33:38.822Z,-0.66
2018-01-20T23:43:15.258Z,-0.72
2018-01-20T23:52:51.965Z,-0.65
